Race Results for
Golden State Criterium
Rancho Cordova, CA
(Event Information)
View By:
Criterium on 05/30/2009

Note: Ranking points are NOT upgrade points. An explanation of ranking points can be found here.


Men - Pro/Cat 1/2 - Open

 Place Points NameCity, StateTime USAC #BibTeam
1282.68Alex Holtz   Sacramento, CA00:00.0 61440  68 Emc2-felt
2289.83Gregg Betonte   Truckee, CA00:00.0 255414  82 Safeway / Bicycles Plus
3296.98Michael Sayers   Fair Oaks, CA00:00.0 54591  91 Unattached
4304.12Tim Granshaw   Redwood City, CA00:00.0 55803  60 Sierra Pacific Racing
5311.27Philip Mooney   San Rafael , CA00:00.0 206962  71 Metromint Cycling
6318.42Michael Hernandez   Oakland, CA00:00.0 136641  86 Vos-cycles Gladiator
7325.57Dan Martin   Pleasanton, CA00:00.0 179386  97 Unattached
8332.72Judd Van Sickle   Sacramento, CA00:00.0 127052  81 Rocknasium
9339.86Adam Switters (1 - Cat1)   Citrus Heights, CA00:00.0 127093  80 California Giant -specialized
10347.01Alden Tanaka   San Mateo, CA00:00.0 568  85 Team Clif Bar Cycling
11354.16Keith Hillier   Millbrae, CA00:00.0 276108  67 Davis Bike Club
12361.31John Fairbanks   Sacramento, CA00:00.0 83306  84 Safeway/bicycles Plus Racing
13368.46Matthew Obregon   Folsom, CA00:00.0 232613  99 Safeway/bicycles Plus Racing
14375.60Darren Basso   Belmont, CA00:00.0 130973  83 Arete' Racing
15382.75Jeremy Ferguson   Rocklin, CA00:00.0 222762  66 California Giant Berry Farms/s
16389.90Michael Cordova   Chester, CA00:00.0 207547  64 Chico Corsa Pb Sierra Nevada B
17397.05Josh Rennie   Reno, NV00:00.0 251736  77 Team Clif Bar
18404.20Ryan Ramos   Berkeley, CA00:00.0 139348  76 Ias/rh Villa/montano Velo
19411.34Mark Deterline   Salt Lake City, UT00:00.0 43613  65 Wells Fargo Racing Team
20418.49Gregory Anderson   Vacaville, CA00:00.0 90802  89 Morgan Stanley/team Spine/spec
21425.64Christopher Baker   Sacramento, CA00:00.0 47424  62 Emc2/felt
22432.79Collin Samaan   Fair Oaks, CA00:00.0 196233  58 Etna
23439.94Joseph Oliveri   Grass Valley, CA00:00.0 26674  73 Emc/felt Bicycles
24447.08Aaron Beardsley   Berkeley, CA00:00.0 188253  87 Team Clif Bar Cycling
25454.23Christopher Jones   Bend, OR00:00.0 187300  95 Uci Ct: Team Type 1
26461.38Micah Herman   Carson City, NV00:00.0 224018  92 Vos-cycles Gladiator
27468.53Kyle Glerum   Burlingame, CA00:00.0 195470  93 Safeway/bicycles Plus Racing
28475.68Trevor Johnson (2 - Cat1)   Sherwood, AR00:00.0 234129  69 
29482.82Joe Iannarelli   Vacaville, CA00:00.0 195783  88 Team Clif Bar Cycling
30UNKNOWN RIDER   00:00.0  98 -------
31497.12Doran Mori   Oakland, CA00:00.0 196267  72 Team Clif Bar Cycling
32504.27Adam Ross   Folsom, CA00:00.0 167796  78 Wells Fargo Racing Team
33511.42Brandon Correia   Alameda, CA00:00.0 188308  96 Godspeed Courier
34518.56Charles Pockell-Wilson   Martinez Ca00:00.0 52696  100 Morgan Stanley/team Spine/spec
35525.71Brian Percival   San Francisco, CA00:00.0 240097  74 Metromint Cycling
36532.86Dylan Seguin   Boise, ID00:00.0 44296  79 Team Clif Bar Cycling
37540.01Charles Alexander   Sacramento, CA00:00.0 206466  61 Davis Bike Club
DNSJoshua Lerner   San Francisco, CA00:00.0 206346  70 Fusion Sport
DNPStephen McCaw   Sacramento, CA00:00.0 62322  59 Armstrong & Associates / Fci C
DNPDylan Clark   Auburn, CA00:00.0 243069  63 Safeway/ Bicycles Plus
DNPJeff Poulsen   Arnold, CA00:00.0 28533  75 Safeway/bicycles Plus
DNPDavid QUIST   00:00.0  90 Team Cliff Bar
DNPDave Kause   Sacramento, CA00:00.0 175157  94 Team Kinetic Cycles

Men - Cat 1/2/3 - Master - 35-99

 Place Points NameCity, StateTime USAC #BibTeam
1291.81Michael Sayers   Fair Oaks, CA00:00.0 54591  244 Amgen/giant
2298.91Alex Holtz   Sacramento, CA00:00.0 61440  217 Emc2-felt
3306.01Judd Van Sickle   Sacramento, CA00:00.0 127052  235 Rocknasium
4313.11Thomas Godfrey   Arlington, VA00:00.0 13480  254 Unattached
5320.21Marty Cunningham   Sacrament Ca00:00.0 8359  250 Armstrong/fci
6327.31Jason Brown   Lodi, CA00:00.0 53115  206 Vos-cycles Gladiator
7334.41Dan Martin   Pleasanton, CA00:00.0 179386  246 Safeway/bicycle Plus
8341.51Chad DeMasi   Davis, CA00:00.0 158049  209 Rocknasium
9348.61Max Mack   Sacramento, CA00:00.0 45629  239 Health Is Wealth Powered By Wh
10355.71John Fairbanks   Sacramento, CA00:00.0 83306  258 Safeway/bicycles Plus Racing
11362.81Robert Winder   Lafayette, CA00:00.0 220285  251 Hdr P/b Lombardi Sports
12369.91Rob Cady   Elk Grove, CA00:00.0 49774  207 Zenn Racing Team
13377.00Keith Williams   Stockton, CA00:00.0 158389  238 Williams Cycling
14384.10Peter Williams   Sacramento, CA00:00.0 219604  237 Emc2/felt
15391.20Michael O'Rourke   Auburn, CA00:00.0 204496  227 Victory Velo/proactive
16398.30Mike Kelly   Rio Linda, CA00:00.0 138145  252 Zenn Racing Team
17405.40Christopher Baumann   Sacramento, CA00:00.0 53271  259 Etna Brewing Co.
18412.50Rich Mader   Sacramento, CA00:00.0 222996  223 Zenn Racing Team
19419.60Nabil Samaan   Fair Oaks, CA00:00.0 177518  241 Team Bicycles Plus
20426.70wilson gorrell   Folsom, CA00:00.0 254622  213 Safeway/bicycles Plus
21433.80Brian Peterson   Santa Cruz, CA00:00.0 196252  228 Webcor/alto Velo
22440.90Ryan Hata   Sacramento, CA00:00.0 368  214 Team Kinetic Cycles
23448.00Aaron Hunter   Santa Cruz, CA00:00.0 215194  218 Vos-cycles Gladiator
24455.10Michael Ricks   Stockton, CA00:00.0 250319  253 Chico Corsa Cycling Team
25462.20Paul Tindal   South Lake Tahoe, CA00:00.0 153758  248 Alta Alpina Cycling Club
26469.30Brian Hitchman   Folsom, CA00:00.0 48419  216 Rio Strada Racing
27476.40Scott Wielt   San Rafael, CA00:00.0 38154  236 Armstrong Assoc/fci Lending
28483.50Stephan Barsun   Davis, CA00:00.0 42612  256 Armstrong/fci
29490.60Mitchell Rohrer   Sacramento, CA00:00.0 30439  255 Team City Sacramento
30497.70Chris Carscadden   Walnut Creek, CA00:00.0 165751  208 Hdr P/b Lombardi Sports
31504.80R Todd Marshall   Sacramento, CA00:00.0 43936  240 Armstong & Assoc./ Fci Lending
32511.90Michael Jacques   Portola Valley, CA00:00.0 72022  247 Garrison Institutional/tbs Tea
34519.00Stephen McCaw   Sacramento, CA00:00.0 62322  260 Armstrong & Associates / Fci C
35526.10Kyle Glerum   Burlingame, CA00:00.0 195470  245 Safeway/bicycles Plus Racing
36533.20Fred Ramos   Davis, CA00:00.0 195221  231 Zenn Racing Team
37540.30Christopher Baker   Sacramento, CA00:00.0 47424  202 Emc2/felt
38547.40Christopher Husing   Elk Grove, CA00:00.0 49804  219 Armstrong/fci
39554.50Tim Granshaw   Redwood City, CA00:00.0 55803  249 Sierra Pacific Racing
40561.60Peter Allen   Fair Oaks, CA00:00.0 46996  201 Safeway / Bicycles Plus
41568.70Tony Reid   Sacramento, CA00:00.0 29458  232 Safeway / Bicycles Plus
42575.80James Herzman   Truckee, CA00:00.0 207922  215 Reno Wheelmen
43Steve SHOWLER   00:00.0  234 Armstrong Assoc / Fci Lending
44590.00Richard Bradley   Sacramento, CA00:00.0 223944  205 Emc2-felt
DNSTracy Muegge   Gold River, CA00:00.0 51637  225 Rio Strada Racing
DNPJason Boynton   Yuba City, CA00:00.0 4526  204 Rocknasium
DNPTom Fahey   Lodi, CA00:00.0 54092  210 Webcor/alto Velo
DNPScott Fonseca   Fair Oaks, CA00:00.0 204715  211 Zenn Racing Team
DNPJeffrey Galland   Paradise, CA00:00.0 127804  212 Chico Corsa/sierra Nevada
DNPSergio Jimenez   Carmichael, CA00:00.0 141124  220 Rio Strada Racing
DNPDave Kause   Sacramento, CA00:00.0 175157  221 Kinetic Cycling Team
DNPJonathan Laine   Truckee, CA00:00.0 256153  222 Safeway/bicycles Plus
DNPDarryl Moxley   Orangevale, CA00:00.0 86490  224 Team Bicycles Plus/sierra Neva
DNPJoseph Oliveri   Grass Valley, CA00:00.0 26674  226 Emc/felt Bicycles
DNPJeff Poulsen   Arnold, CA00:00.0 28533  230 Safeway/bicycles Plus
DNPRon Rouse   Sacramento, CA00:00.0 166249  233 Rio Strada Racing
DNPMichael Hernandez   Oakland, CA00:00.0 136641  242 Vos-cycles Gladiator
DNPGregory Anderson   Vacaville, CA00:00.0 90802  243 Morgan Stanley/team Spine/spec
DNPJames Plummer   Chico, CA00:00.0 113486  257 Chico Corsa Cycling Team

Men - Cat 1/2/3 - Master - 45-99

 Place Points NameCity, StateTime USAC #BibTeam
1341.71Gregg Betonte   Truckee, CA00:00.0 255414  359 Safeway / Bicycles Plus
2349.72Jeff Poulsen   Arnold, CA00:00.0 28533  377 Safeway/bicycles Plus
3357.73Michael O'Rourke   Auburn, CA00:00.0 204496  376 Victory Velo/proactive
4365.74Keith Williams   Stockton, CA00:00.0 158389  387 Williams Cycling
5Steve SHOWLER   00:00.0  380 Armstrong Assoc / Fci Lending
6381.76Julien Dufresne   Fair Oaks, CA00:00.0 59046  391 Rio Strada Racing
7389.77Andre Tenthorey   Granite Bay, CA00:00.0 76561  394 Sacramento Golden Wheelmen
8397.78Benjamin Swann (1 - Cat2)   Sacramento, CA00:00.0 34735  395 Unattached
9405.78Kevin Willitts   S Lake Tahoe, CA00:00.0 192774  384 Garrison Institutional
10413.79Bill Nicely   San Ramon, CA00:00.0 215434  373 Vos-cycles Gladiator
11Robert JIMENEZ   00:00.0  388 N/a
12429.81Tony Reid   Sacramento, CA00:00.0 29458  378 Safeway / Bicycles Plus
13437.82Randy Farrens   Sacramento, CA00:00.0 143681  362 Rio Strada Racing
14445.83Craig Stewart   Orinda, CA00:00.0 205201  381 Taleo Racing
15453.84Bernard Silveria   El Dorado Hills, CA00:00.0 94897  392 Unattached
16461.85Brian Hitchman   Folsom, CA00:00.0 48419  365 Rio Strada Racing
17469.86R Todd Marshall   Sacramento, CA00:00.0 43936  371 Armstong & Assoc./ Fci Lending
18477.87Robert Nichols   Lockeford, CA00:00.0 255632  374 Pacific State Bank Cycling Tea
19485.88Brian McCleary   Sacramento, CA00:00.0 109066  393 Armstrong & Assoc.
20493.89Robert Pasco   Belmont, CA00:00.0 136970  386 Safeway/bicycles Plus Racing
21501.90Craig Lindberg   Nevada City, CA00:00.0 83707  369 Sert/sho-air
22Jay KINNEY   00:00.0  366 Na
23517.92William Owens   Truckee, CA00:00.0 26982  390 Reno Wheelmen
24525.93Spencer Kenner   Davis, CA00:00.0 86651  389 Armstrong & Associates / Fci C
25533.93James Rogers   Grass Valley, CA00:00.0 30391  379 Sert
26541.94Steven Olechny   Saratoga , CA00:00.0 142113  375 Taleo Racing
27549.95Steve Grube   Sacramento, CA00:00.0 51158  364 Unattached
28557.96Douglas Gonda   Truckee, CA00:00.0 13594  363 Reno Wheelmen
29565.97Scott Wielt   San Rafael, CA00:00.0 38154  382 Armstrong Assoc/fci Lending
30573.98Peter Allen   Fair Oaks, CA00:00.0 46996  358 Safeway / Bicycles Plus
31581.99Jonathan Laine   Truckee, CA00:00.0 256153  368 Safeway/bicycles Plus
32590.00Richard Maile   Sacramento, CA00:00.0 153697  370 Sacramento Cx
DNSJohn Diemont   Richmond, CA00:00.0 71231  360 Alto Velo/webcor
DNSLarry Knaus   Santa Clara, CA00:00.0 48681  367 Webcorealto Velo
DNSTracy Muegge   Gold River, CA00:00.0 51637  372 Rio Strada Racing
DNSNelson Willhite   Sunnyvale, CA00:00.0 219614  383 Sert/sho-air
DNSFrank Winters   Susanville, CA00:00.0 54032  385 Reno Wheelmen

Men - Cat 3 - Open

 Place Points NameCity, StateTime USAC #BibTeam
1356.22Joshua Carling   Rancho Cordova, CA00:00.0 234584  674 Pacific State Bank Cycling Tea
2361.96Nathanael Christensen   Clements, CA00:00.0 239919  635 Delta Velo
3367.70Scott Herring   Sausalito, CA00:00.0 236346  643 Touchstone Climbing
4373.44Nicholas Oliver   El Dorado Hills, CA00:00.0 271541  654 Rio Strada Racing
5379.18Richard Bradley   Sacramento, CA00:00.0 223944  671 Zenn Racing Team
6384.92Justin Hall   El Dorado Hills, CA00:00.0 81780  642 Rocknasium
7390.66Frank Marrs   Atlanta, GA00:00.0 272691  648 Davis Bike Club
8396.40Ron Rouse   Sacramento, CA00:00.0 166249  659 Rio Strada Racing
9402.14wilson gorrell   Folsom, CA00:00.0 254622  640 Safeway/bicycles Plus
10407.88Michael Egan   West Sacrametno, CA00:00.0 124893  638 Sacramento Golden Wheelmen
11Joshua BRAND   00:00.0  632 Na
12419.36Jeffrey Galland   Paradise, CA00:00.0 127804  639 Chico Corsa/sierra Nevada
13425.10Luke Ramseth   Colfax, CA00:00.0 208152  657 Victory Velo
14430.84Angus MacDonald   Vacaville, CA00:00.0 140048  646 Precision Bicycles\team Precis
15436.58Ryan Byars   Durham, NC00:00.0 266612  633 Team Roaring Mouse
16Jeff SCHARMACHER   00:00.0  661 
17448.06Aaron Obelleiro   Dixon, CA00:00.0 264228  653 Team Precision/ Precision Bicy
18453.81Michael Jasinski   Rocklin, CA00:00.0 269476  666 Chico Corsa Cycling Team
19459.55Jeff Dillon   Folsom, CA00:00.0 9524  672 Bicycle Planet
20465.29Craig Stewart   Orinda, CA00:00.0 205201  663 Taleo Racing
21471.03Leon Iannarelli   Vacaville, CA00:00.0 49838  668 Precision Bicycles/team Precis
22476.77Dennis Baker   Sacramento, CA00:00.0 255279  670 Sacramento Golden Wheelmen
23482.51Brian Halkett   Cameron Park, CA00:00.0 265702  641 Davis Bike Club
24488.25David Barok   West Sacramento, CA00:00.0 62053  669 Team City Sacramento
25493.99Torey Philipp   El Dorado Hills, CA00:00.0 263055  655 Davis Bike Club
26499.73Jason Allen   Carmichael, CA00:00.0 202003  631 River City Racing - Language 4
27505.47Kenny Lane   Citrus Heights, CA00:00.0 274485  667 Rio Strada Racing
28511.21Cody Kaiser   El Dorado Hills, CA00:00.0 202564  645 Team Kinetic Cycles
29516.95James Plummer   Chico, CA00:00.0 113486  656 Chico Corsa
30522.69Richard Steele   El Dorado Hills, CA00:00.0 58347  673 Sacramento Golden Wheelmen
31528.43James Whitney   Lincoln, CA00:00.0 51073  664 Fusion Sport
32534.17Joshua Hughes   Sacramento, CA00:00.0 123925  676 Victory Velo/proactive Persona
33539.91Todd Dodds   Redding, CA00:00.0 204936  636 Owens Healthcare
34545.65Michael Ricks   Stockton, CA00:00.0 250319  658 Chico Corsa
35Nabil SAMAAN   00:00.0  660 Bicycle Business/team Compound
36557.13Nicolas Schweizer   Sacramento, CA00:00.0 230919  662 Sgw/city Bicycle Works
37562.87Scott Butler   Columbia, MO00:00.0 106701  675 Pacific State Bank Cycling Tea
38568.61Jeff Needham   Vacaville, CA00:00.0 91021  651 Rocknasium
39574.35Richard Maile   Sacramento, CA00:00.0 153697  647 Sacramento Cx
DNSPeter Castaldi   Lafayette, CA00:00.0 48604  634 Kovarus/abta
DNSJulien Dufresne   Fair Oaks, CA00:00.0 59046  637 Rio Strada Racing
DNSSergio Jimenez   Carmichael, CA00:00.0 141124  644 Rio Strada Racing
DNSDarryl Moxley   Orangevale, CA00:00.0 86490  650 Team Bicycles Plus/sierra Neva
DNPRobert Nichols   Lockeford, CA00:00.0 255632  652 Pacific State Bank Cycling Tea
DNPJulien Dufresne   Fair Oaks, CA00:00.0 59046  665 Rio Strada Racing

Men - Cat 3/4 - Master - 35-99

 Place Points NameCity, StateTime USAC #BibTeam
1383.34Karl Wurzbach   Fairfield, CA00:00.0 260329  906 Davis Bike Club
2386.94Richard Bradley   Sacramento, CA00:00.0 223944  929 Emc2-felt
3390.54Andre Tenthorey   Granite Bay, CA00:00.0 76561  903 Sgw
4Nabil SAMAAN   00:00.0  976 Bicycle Business/team Compound
5397.73Bill Nicely   San Ramon, CA00:00.0 215434  958 Vos-cycles Gladiator
6401.33Ron Rouse   Sacramento, CA00:00.0 166249  974 Rio Strada Racing
7404.93Richard Tabuso   Roseville, CA00:00.0 274439  982 Rio Strada Racing
8408.53Peter Williams   Sacramento, CA00:00.0 219604  986 Emc2/felt
9412.12Todd Dodds   Redding, CA00:00.0 204936  936 Owens Healthcare
10415.72Chad DeMasi   Davis, CA00:00.0 158049  935 Rocknasium
11419.32Kenny Lane   Citrus Heights, CA00:00.0 274485  1000 Rio Strada Racing
12422.92Kevin Willitts   S Lake Tahoe, CA00:00.0 192774  987 Garrison Institutional
13426.52Leon Iannarelli   Vacaville, CA00:00.0 49838  999 Precision Bicycles/team Precis
14Reed JACKSON   00:00.0  948 Team City
15433.71Aaron Obelleiro   Dixon, CA00:00.0 264228  960 Team Precision/ Precision Bicy
16437.31Aaron Hunter   Santa Cruz, CA00:00.0 215194  947 Vos-cycles Gladiator
17440.91Fred Schnaars   Davis, CA00:00.0 65032  977 Davis Bike Club
18444.51Derek Novaes   West Sacramento, CA00:00.0 274484  989 Rio Strada Racing
19448.10Rod Fernandez   Dixon, CA00:00.0 265576  937 Davis Bike Club
20451.70Alan Rowland   Davis, CA00:00.0 56017  975 Rocknasium
21UNKNOWN RIDER   00:00.0  904 -------
22458.90Steve Ball   Napa, CA00:00.0 59338  928 Eagle Racing Team
23462.50Brian Pantiga   Folsom, CA00:00.0 61633  966 Bicycle Planet
24466.09Mark Hockridge   Granite Bay, CA00:00.0 269690  946 Davis Bike Club
25469.69Tryon Woods (1 - Cat4)   Providence, RI00:00.0 42850  998 Unattached
26473.29Jeff Dillon   Folsom, CA00:00.0 9524  991 Bicycle Planet
27UNKNOWN RIDER   00:00.0  -------
28480.49Steve Offerman   Sacramento, CA00:00.0 81992  963 Rio Strada Racing
29484.08Douglas Gonda   Truckee, CA00:00.0 13594  941 Reno Wheelmen
30487.68Michael Smith   Chico, CA00:00.0 110466  979 Chico Corsa
31491.28James Plummer   Chico, CA00:00.0 113486  968 Chico Corsa
32494.88Chris Dawson   Sacramento, CA00:00.0 224241  934 River City Racing
33498.47Gregg Lehman   Vacaville, CA00:00.0 250959  951 Precision Bicycles / Team Prec
34502.07Dave Smith   Elk Grove, CA00:00.0 237254  978 Rio Strada Racing
35505.67Jason Oxford   Fresno, CA00:00.0 277338  964 Vapor Racing
36Rick MCELMAN   00:00.0  901 Rio Strada
37512.87Paul Tindal   South Lake Tahoe, CA00:00.0 153758  994 Alta Alpina Cycling Club
38516.46Paul Taylor   Brentwood, CA00:00.0 207281  983 Metromint Cycling
39520.06James Herzman   Truckee, CA00:00.0 207922  945 Reno Wheelmen
40523.66Rowel (Rob) Palisoc   Berkeley, CA00:00.0 195972  965 Team Oakland
41527.26Brian Priddin   El Dorado, CA00:00.0 178247  969 Na
42530.86Joseph Clifford   Roseville, CA00:00.0 232661  931 Taleo Racing
43534.45R Todd Marshall   Sacramento, CA00:00.0 43936  993 Armstrong & Associates / Fci C
44538.05Timothy Zsoka   Folsom, CA00:00.0 239889  902 Team Bicycles Plus/sierra Neva
45541.65Jeff Ochs   Chico, CA00:00.0 264642  961 Chico Corsa
46545.25Paul Malenke   Roseville, CA00:00.0 82738  953 Team Bicycles Plus/sierra Neva
47548.85Richard Coyle   Granite Bay, CA00:00.0 277158  932 Rio Strada Racing
48552.44wilson gorrell   Folsom, CA00:00.0 254622  996 Team Bicycles Plus
49556.04Jeff Mitchell   Folsom, CA00:00.0 101551  954 Rio Strada Racing
50Devin AVERY   00:00.0  927 Beer
51563.24Stanley Dominguez (1 - Cat3)   Sacramento, CA00:00.0 49084  905 Cynergy Cycles
52UNKNOWN RIDER   00:00.0  995 -------
53570.43Rodney Spradlin   El Dorado Hills, CA00:00.0 122266  980 Fci/armstrong
54574.03Justin Hall   El Dorado Hills, CA00:00.0 81780  943 Rocknasium
55577.63David Freelove   Sacramento, CA00:00.0 279923  938 Sacramento Golden Wheelmen
56581.23David Burke   Sacramento, CA00:00.0 5509  990 Rio Strada Racing
57584.83Brian Halkett (2 - Cat3)   Cameron Park, CA00:00.0 265702  942 Davis Bike Club
DNPGiovanni Campisi   Santa Rosa, CA00:00.0 256021  930 Precision Bicycles/team Precis
DNPMatthew Davis   Reno, NV00:00.0 237845  933 Team Clover
DNPNelson Frink   Sutter, CA00:00.0 268821  939 Davis Bike Club
DNPJeffrey Galland   Paradise, CA00:00.0 127804  940 Chico Corsa/sierra Nevada
DNPDavid Haslemann   Folsom, CA00:00.0 277664  944 Rio Strada Racing
DNPChris KING   00:00.0  949 Dolce Vita Cycling
DNPKenny Lane   Citrus Heights, CA00:00.0 274485  950 Rio Strada Racing
DNPAngus MacDonald   Vacaville, CA00:00.0 140048  952 Precision Bicycles\team Precis
DNPPaul Mitchell   Sacramento, CA00:00.0 220645  955 Cycling-training.com
DNPDarryl Moxley   Orangevale, CA00:00.0 86490  956 Team Bicycles Plus/sierra Neva
DNPJeff Needham   Vacaville, CA00:00.0 91021  957 Rocknasium
DNPDerek NOVAES   00:00.0  959 Rio Strada Racing
DNPSean Odom   Carmichael, CA00:00.0 223061  962 Rio Strada Racing
DNPRussell Petrosky   Gardnerville, NV00:00.0 220923  967 Great Basin Imaging Cycling Te
DNPJonathan Racine   San Jose, CA00:00.0 200129  970 Sjbc/sugarcrm
DNPGordon Richardson   Sacramento, CA00:00.0 198509  971 
DNPMichael Ricks   Stockton, CA00:00.0 250319  972 Chico Corsa
DNPRobin Rolles   Sacramento , CA00:00.0 219331  973 Davis Bike Club
DNPMark Stemmy   Cameron Park, CA00:00.0 130535  981 Team Ride For A Reason
DNPSteve THOMSEN   00:00.0  984 Great Basin Imaging
DNPPeter Tousignant   Belmont, CA00:00.0 231855  985 Third Pillar
DNPFrank Winters   Susanville, CA00:00.0 54032  988 Reno Wheelmen
DNPMatthew Berrien   Folsom, CA00:00.0 287318  992 Rio Strada Racing
DNPJulien Dufresne   Fair Oaks, CA00:00.0 59046  997 Rio Strada Racing

Men - Cat 4 - Open

 Place Points NameCity, StateTime USAC #BibTeam
1442.54John Novikoff   Rocklin, CA00:00.0 239990  434 Bicycle Planet
2445.43Jeffrey Pritchett   Vacaville, CA00:00.0 801  443 Precision Bicycles / Team Prec
3448.32Steve Ball   Napa, CA00:00.0 59338  403 Eagle Racing Team
4451.21Ramsey Etchison   Truckee, CA00:00.0 251486  416 Cyclepaths/wild Cherries Racin
5454.11Rodney Spradlin   El Dorado Hills, CA00:00.0 122266  468 FCI/Armstrong
6457.00Todd Stone   Carmichael, CA00:00.0 249318  452 Rio Strada Racing
7459.89Jay Parkhill   San Francisco, CA00:00.0 27283  441 Team Roaring Mouse
8462.78Patrick Kitto   San Francisco, CA00:00.0 236583  427 Fresnoakland
9465.67Alvaro Mosquera   Sacramento, CA00:00.0 236809  431 Berkeley Bicycle Club (bbc)
10468.56Rod Fernandez   Dixon, CA00:00.0 265576  419 Davis Bike Club
11471.45Derek Milsaps   Vacaville, CA00:00.0 256020  430 Precision Bicycles
12474.35Richard Tabuso   Roseville, CA00:00.0 274439  453 Rio Strada Racing
13477.24Steve Offerman   Sacramento, CA00:00.0 81992  463 Rio Strada Racing
14480.13Chris Dawson   Sacramento, CA00:00.0 224241  414 River City Racing
15483.02Paul Taylor   Brentwood, CA00:00.0 207281  454 Metromint Cycling
16485.91Matt Chappell   Truckee, CA00:00.0 273103  409 Cyclepaths/wildcherries Racing
17488.80Sean Odom   Carmichael, CA00:00.0 223061  436 Rio Strada Racing
18491.69Jason Arinno   Elk Grove, CA00:00.0 260928  401 Davis Bike Club
19494.58Mark Hockridge   Granite Bay, CA00:00.0 269690  426 Davis Bike Club
20Bryan WARHOLD   00:00.0  459 Davis Bike Club
21500.37Jeff Mitchell   Folsom, CA00:00.0 101551  464 Rio Strada Racing
22503.26Derek Novaes   West Sacramento, CA00:00.0 274484  462 Rio Strada Racing
23506.15Michael Smith   Chico, CA00:00.0 110466  449 Chico Corsa
24509.04Francis Goldsberry   Sacramento, CA00:00.0 132927  422 Sacramento Golden Wheelmen
25511.93Tryon Woods   Providence, RI00:00.0 42850  461 Studio Velo
26514.82Nicholas Carlevato   Carson City, NV00:00.0 64351  467 Great Basin Imaging
27517.72Rick Reynolds   Truckee, CA00:00.0 287475  446 Cyclepaths/wild Cherries Racin
28520.61Keegan Bruemmer   Reno, NV00:00.0 239684  466 Great Basin Imaging Cycling Te
29523.50Jason Oxford   Fresno, CA00:00.0 277338  437 Vapor Racing
30526.39Brian Agnell   Sacramento, CA00:00.0 180563  465 Rio Strada Racing
31Devin AVERY   00:00.0  402 Beer
32Dave CARLSON   00:00.0  408 Davis Bike Club
33535.06Jeffrey Palileo   American Canyon, CA00:00.0 224717  438 Sportgenic/squadra Ovest
34537.96Joshua Bullock   Sacramento, CA00:00.0 153414  406 Chico Corsa
35540.85Phillip Smith   El Dorado Hills, CA00:00.0 33251  450 Bicycle Planet
36543.74James Macdonald   Sacramento, CA00:00.0 232137  469 Beer
37546.63Brian Pantiga   Folsom, CA00:00.0 61633  440 Bicycle Planet
38549.52David Haslemann   Folsom, CA00:00.0 277664  425 Rio Strada Racing
39552.41Grant Grohmann   Pleasanton, CA00:00.0 287048  424 International Christian Club
40555.30Kevin Tufts   Cameron Park, CA00:00.0 243434  457 Bicycle Planet
41558.19Jeff Ochs   Chico, CA00:00.0 264642  435 Chico Corsa
42561.09Frank Shoemaker   Folsom, CA00:00.0 32519  448 Bicycle Planet
43Lorenzo FEHER   00:00.0  418 Na
44566.87Jeff Remer   El Cerrito, CA00:00.0 267197  445 Team Roaring Mouse
45569.76Eric Struble   Nevada City, CA00:00.0 220864  470 Ser/show-air
46572.65David Freelove   Sacramento, CA00:00.0 279923  421 Sacramento Golden Wheelmen
47575.54John Pemberton   Sacramento, CA00:00.0 228159  471 Bike Chef
48578.43Gregg Lehman   Vacaville, CA00:00.0 250959  428 Precision Bicycles / Team Prec
49Todd DAMBLY   00:00.0  410 Bicycle Planet
50584.22Matt Tufts   Placerville, CA00:00.0 240212  458 Bicycle Planet
51587.11Ryan Ettl   Folsom, CA00:00.0 252994  417 Bicycle Planet
52Matt BERRIEN   00:00.0  404 Rio Strada Racing
DNSTimothy Bisson   San Jose, CA00:00.0 221552  405 Team Integrate/ffbc P/b Chipot
DNSSamuel Campbell   San Francisco, CA00:00.0 242549  407 Third Pillar
DNSMatthew Davis   Reno, NV00:00.0 237845  412 Team Clover
DNSK Scott Davis   Palo Alto, CA00:00.0 257793  413 Quadcycles
DNSBlake FORMANEK   00:00.0  420 Rio Strada Racing
DNSStephen Grimes   Sacramento, CA00:00.0 261152  423 Davis Bike Club
DNSRussell Petrosky   Gardnerville, NV00:00.0 220923  442 Great Basin Imaging Cycling Te
DNSJonathan Racine   San Jose, CA00:00.0 200129  444 Sjbc/sugarcrm
DNSRobin Rolles   Sacramento , CA00:00.0 219331  447 Davis Bike Club
DNSMark Stemmy   Cameron Park, CA00:00.0 130535  451 Team Ride For A Reason
DNSSteve THOMSEN   00:00.0  455 Great Basin Imaging
DNSPeter Tousignant   Belmont, CA00:00.0 231855  456 Third Pillar
DNSRyan Wenker   Folsom, CA00:00.0 178427  460 Team Mad Cat
DNPMark Davis   Monte Sereno, CA00:00.0 247566  411 Sugarcrm
DNPJames ELDER   00:00.0  415 Rio Strada Racing
DNPCharles McCann   Folsom, CA00:00.0 220709  429 Bicycle Planet
DNPRobert Napieralski   Springville, CA00:00.0 271499  432 Yokohl Ranch/ssc Racing Team
DNPRobert Napieralski   Springville, CA00:00.0 271499  433 Yokohl Ranch/ssc Racing Team
DNPRowel (Rob) Palisoc   Berkeley, CA00:00.0 195972  439 Team Oakland

Men - Cat 4/5 - Master - 45-99

 Place Points NameCity, StateTime USAC #BibTeam
1489.31Rick Reynolds   Truckee, CA00:00.0 287475  184 Cyclepaths/wild Cherries Racin
2Todd DAMBLY   00:00.0  166 Bicycle Planet
3496.77Robert Napieralski   Springville, CA00:00.0 271499  181 Yokohl Ranch/ssc Racing Team
4500.50Joey McCrummen   Brentwood, CA00:00.0 23350  173 Unattached
5504.23Nicholas Carlevato   Carson City, NV00:00.0 64351  161 Great Basin Imaging Cycling Te
6507.96GARY SPEER   Oroville, CA00:00.0 272940  188 Oxyfuel Racing
7511.69Brian McEvilly   Vacaville, CA00:00.0 195782  176 Team Precision
8515.41Joseph Clifford   Roseville, CA00:00.0 232661  163 Taleo Racing
9519.14Richard Coyle   Granite Bay, CA00:00.0 277158  193 Rio Strada Racing
10522.87Brian McLean   Los Gatos, CA00:00.0 278289  177 Easton/sugarcrm/specialized
11526.60Robert Goss   Folsom, CA00:00.0 289041  170 Rio Strada Racing
12530.33Nelson Frink   Sutter, CA00:00.0 268821  168 Davis Bike Club
13James ELDER   00:00.0  167 Rio Strada Racing
14537.79Lee Millon   Winters, CA00:00.0 254073  179 Davis Bike Club
15541.52Dale Matsuda (1 - Cat4)   Rancho Cordova, CA00:00.0 200040  196 Sugarcrm
16545.25Ross Parkerson   Mill Valley, CA00:00.0 221444  197 Zteam
17548.98Frank Shoemaker   Folsom, CA00:00.0 32519  185 Bicycle Planet
18552.71Philip Blay   Folsom, CA00:00.0 274756  159 Na
19Mike COCHRAN   00:00.0  164 Bullseye - East Sac
20560.17Christopher Cioni   Sacramento, CA00:00.0 66414  162 Sacramento Golden Wheelmen
21563.90Devinderjit Singh   Yuba City, CA00:00.0 296818  186 Na
22567.62Tom Cutter   Carmichael, CA00:00.0 285993  165 Fatcyclist.com
23571.35David Burke   Sacramento, CA00:00.0 5509  195 Rio Strada Racing
24575.08Jim McDonald   West Sacramento, CA00:00.0 96452  175 Rio Strada Racing
25578.81Timothy Spillane   Roseville, CA00:00.0 110134  189 Na
26Dan GLASS   00:00.0  194 Rio Strada
27586.27Frederick Proudman   Foley, AL00:00.0 46135  183 Taleo
28590.00Mark Waters (2 - Cat4)   Folsom, CA00:00.0 47102  191 Acido Lattico
DNSSamuel Campbell   San Francisco, CA00:00.0 242549  160 Third Pillar
DNSFrancisco Gatdula   Lodi, CA00:00.0 111613  169 Luzvimin Racing Team
DNSThomas Kellner   Sacramento, CA00:00.0 195574  171 Tuesday Velo/team Voler
DNSRod McCollough   Susanville, CA00:00.0 238040  172 Reno Wheelmen
DNPSkot McDaniel   Novato, CA00:00.0 228100  174 Zteam
DNPPeter Meyer   Mount Aukum, CA00:00.0 219925  178 Rio Strada Racing
DNPMark Sneed   Oakland, CA00:00.0 290626  187 Na
DNPMark Switters   Folsom, CA00:00.0 59052  190 Sacramento Golden Wheelmen
DNPScott Ubrick (Cat5)   Fair Oaks, CA00:00.0 286537  198 Rio Strada Racing

Men - Cat 5 - Open

 Place Points NameCity, StateTime USAC #BibTeam
1513.65Brandon Meadows   Sacramento, CA00:00.0 250736  527 
2515.27Joey McCrummen   Brentwood, CA00:00.0 23350  532 Unattached
3516.90Bob McCamish   Roseville, CA00:00.0 285998  531 N/a
4518.52Joseph Staron   Sacramento, CA00:00.0 132859  526 Na
5Chris HORTON   00:00.0  523 Mad Cat
6521.77Anthony ODell   Orangevale, CA00:00.0 287267  540 Na
7523.40Greg Chapla   Davis, CA00:00.0 282712  510 Team Donate Life
8Greg FALES   00:00.0  516 Team Bicycles Plus/sierra Neva
9526.65Brian McLean   Los Gatos, CA00:00.0 278289  534 Easton/sugarcrm/specialized
10528.27Nathanael Dunn   Fair Oaks, CA00:00.0 290357  515 Rio Strada Racing
11Chris HOPKINS   00:00.0  522 
12531.52Mike Carr   Rocklin, CA00:00.0 290981  508 Na
13533.14Brian McEvilly   Vacaville, CA00:00.0 195782  533 Team Precision
14534.77Robert Goss   Folsom, CA00:00.0 289041  519 Rio Strada Racing
15536.39Timothy Spillane   Roseville, CA00:00.0 110134  544 Na
16Patrick GORDON   00:00.0  517 Team Precision
17539.64John Collins   Folsom, CA00:00.0 231774  512 Team Revolutions
18541.27Morgan Mahanke   El Dorado Hills, CA00:00.0 226577  528 Team Bicycles Plus / Sierra Ne
19542.89emmanuel billaud   San Mateo, CA00:00.0 289763  503 Unattached
20544.51Benjamin Barry   Arcata, CA00:00.0 289212  502 Beer
21546.14Jason Ziegenhirt   Grass Valley, CA00:00.0 284690  550 Team Chico
22547.76Ryan Miesbauer   West Sacramento, CA00:00.0 288945  535 Bicycle Planet
23Treighton MAULDIN   00:00.0  530 Teambicyclechef.com-apac
24551.01Jonathan Barbus   Los Altos, CA00:00.0 295596  501 Davis Bike Club
25552.64Mark Stern   Folsom, CA00:00.0 272223  545 Rio Strada Racing
26554.26Jeff Sawyer   Rocklin, CA00:00.0 220240  542 Damiano / Maxis / Sun
27555.89Trevor Cadogan   Roseville, CA00:00.0 284507  507 Rio Strada Racing
28557.51Jason Berens   Vacaville, CA00:00.0 296265  537 N/a
29Ryan DROBEK   00:00.0  514 Team Becher+
30560.76Fred Haines   Sacramento, CA00:00.0 249078  520 Revolutions Cycling
31562.38Edwin Clement   Sacramento00:00.0 286998  511 Team Mad Cat
32Antonio MIRANDA   00:00.0  536 Bicicle Imporium
33Matt POLAND   00:00.0  541 Team Revolutions
34Christopher WESTPHAL   00:00.0  548 Bicycle Planet
35568.88Raymond Martinez   Sacramento, CA00:00.0 290050  529 Team Precision
36570.51Philip Blay   Folsom, CA00:00.0 274756  504 Na
37572.13Steve Wetzel   Folsom, CA00:00.0 287877  549 Team Bicycles Plus/sierra Neva
38573.76Josh Keel   Morgan Hill, CA00:00.0 194966  513 Rio Strada Racing
39Lee J HINGE   00:00.0  521 Na
40577.00Michael Broz   Sacramento, CA00:00.0 41833  506 Davis Bike Club
41Weston Krumm   00:00.0  538 Chico Corsa
42580.25Jason Brasel   Nashville, TN00:00.0 287349  505 Davis Bike Club
43581.88Kristopher Tjernell   Sacramento, CA00:00.0 226109  546 Team Becher +
44583.50Ryan Oakes   Chico, CA00:00.0 258824  539 Bicycle Planet
45Fernando Santillian   00:00.0  543 Bicycle Emporium
46Paul HUY   00:00.0  525 N/a
47Eric CHAN   00:00.0  509 Na
48590.00Eamonn Gormley   Sunnyvale, CA00:00.0 282501  518 Team Sugarcrm
DNPERIC HOUSTON   Antelope, CA00:00.0 284959  524 Unattached
DNPJeffrey Weaver   Sacramento, CA00:00.0 290926  547 Davis Bike Club

Women - Cat 3 - Open

 Place Points NameCity, StateTime USAC #BibTeam
1489.34Marley Smith   Roseville, CA00:00.0 276961  832 Health Is Wealth Powered By Wh
2496.07April Hamlin   El Dorado Hills, CA00:00.0 266244  820 Team Integrate/ffbc P/b Chipot
3502.80Heather Nielson   Seattle, WA00:00.0 237346  824 Colavita/sutter Home Northern
4509.53Elizabeth Newell   Oakland, CA00:00.0 252152  823 Veritas Cycling
5516.26Jessica Conner   San Francisco, CA00:00.0 181072  829 Dolce Vita Cycling
6522.99Katie Norton   Sacramento, CA00:00.0 226927  825 Velo Bella-kona
7529.72Rita Szeto   Crockett, CA00:00.0 195322  828 Norcal Velo
8536.45Morgan Bonar   Oakland, CA00:00.0 247685  830 Dolce Vita Cycling
9543.18Marianne Hernandez   Davis, CA00:00.0 68813  821 Davis Bike Club
10549.91Sarah Kayfetz   San Francisco, CA00:00.0 104310  822 Dolce Vita
11556.64Christina Showler   Carmichael, CA00:00.0 260701  827 Pacific Coast Cycline Club
12563.37Marian Jamison   Gloucester, MA00:00.0 230034  831 Velo Bella
13570.10Kimberley Payne   Campbell, CA00:00.0 51589  826 Team Integrate/ffbc P/b Chipot
DNSSoni Andreini Poulsen   Arnold, CA00:00.0 235758  818 Velo Bella
DNPJoan Case   Pleasant Hill, CA00:00.0 242557  819 Cycling Systems

Women - Cat 4 - Open

 Place Points NameCity, StateTime USAC #BibTeam
1538.49Kimberly Sudbrink   Santa Cruz, CA00:00.0 271314  774 Team Bicycle Trip
2540.74Meegan Massagli   San Francisco, CA00:00.0 272260  769 Dolce Vita Cycling
3Lisa BRINTON   00:00.0  761 Na
4Kameo CAMPISI   00:00.0  762 Precision Bicycles/team Precis
5547.50Ann Stuart   Sacramento, CA00:00.0 250365  773 Team Integrate/ffbc Powered By
6Janet MANN   00:00.0  768 Rio Strada Racing
7552.00Cynthia Moore   Roseville, CA00:00.0 24891  770 Rio Strada Racing
8554.25Stephanie Dameral   Vacaville, CA00:00.0 287351  764 Early Bird Women
9556.50Leslie Halkett   Cameron Park, CA00:00.0 286638  766 Davis Bike Club
10558.76Jamii North   Portola Valley, CA00:00.0 219869  771 Team Intergrate/ffbc P/b Chipo
11561.01Katherine Hamilton   Fairfax, CA00:00.0 253544  775 Zteam
12563.26Rachel Hirschey   Mill Valley, CA00:00.0 288198  776 Dolce Vita
13565.51Sherri Lehman   Gold River, CA00:00.0 274098  767 Team Integrate/ffbc P/b Chipot
14567.76Michele Feikert   Davis, CA00:00.0 286411  765 Davis Bike Club
15570.01Mary Glenn Carrasco   Foster City, CA00:00.0 266378  763 Team Integrate/ Ffbc P/b Chipo
16572.27Kelly Snow   San Francisco, CA00:00.0 255117  772 Dolce Vita
DNPMarja Nousiainen   Menlo Park, CA00:00.0 203255  777 Team Roaring Mouse

Report missing or incorrect license numbers

Volkswagen
Bonk BreakerUSACDFSierra NevadaSpyShimano
UCI USA Cycling is the official governing body for all disciplines of competitive cycling in the United States. The 501c3, membership-based organization aims both to achieve sustained success in international cycling competition and to grow competitive cycling in America while delivering an exceptional customer experience.
View Children's Online Privacy Protection Policy
US Olympic Committee